Time,TemperatureF,DewpointF,PressureIn,WindDirection,WindDirectionDegrees,WindSpeedMPH,WindSpeedGustMPH,Humidity,HourlyPrecipIn,Conditions,Clouds,dailyrainin,SoftwareType,DateUTC
2013-11-29 00:02:00,24.1,9.0,30.17,West,266,0.0,0.0,52,0.00,,---,0.00,VWS V13.00,2013-11-29 07:02:00,
2013-11-29 00:07:00,24.4,9.8,30.17,West,266,0.0,0.0,53,0.00,,---,0.00,VWS V13.00,2013-11-29 07:07:00,
2013-11-29 00:12:00,24.6,9.9,30.17,West,266,0.0,0.0,53,0.00,,---,0.00,VWS V13.00,2013-11-29 07:12:00,
2013-11-29 00:17:00,24.6,9.9,30.17,West,266,0.0,0.0,53,0.00,,---,0.00,VWS V13.00,2013-11-29 07:17:00,
2013-11-29 00:22:00,24.3,9.2,30.17,West,266,0.0,0.0,52,0.00,,---,0.00,VWS V13.00,2013-11-29 07:22:00,
2013-11-29 00:28:00,23.9,8.9,30.17,West,266,0.0,0.0,52,0.00,,---,0.00,VWS V13.00,2013-11-29 07:28:00,
2013-11-29 00:33:00,23.5,8.5,30.17,West,266,0.0,0.0,52,0.00,,---,0.00,VWS V13.00,2013-11-29 07:33:00,
2013-11-29 00:38:00,23.4,8.4,30.17,West,266,0.0,0.0,52,0.00,,---,0.00,VWS V13.00,2013-11-29 07:38:00,
2013-11-29 00:43:00,23.0,8.4,30.17,West,266,0.0,0.0,53,0.00,,---,0.00,VWS V13.00,2013-11-29 07:43:00,
2013-11-29 00:48:00,22.8,8.3,30.17,West,266,0.0,0.0,53,0.00,,---,0.00,VWS V13.00,2013-11-29 07:48:00,
2013-11-29 00:53:00,22.5,7.9,30.17,West,266,0.0,0.0,53,0.00,,---,0.00,VWS V13.00,2013-11-29 07:53:00,
2013-11-29 00:58:00,22.3,7.8,30.17,West,266,0.0,0.0,53,0.00,,---,0.00,VWS V13.00,2013-11-29 07:58:00,
2013-11-29 01:03:00,22.3,7.8,30.17,West,266,0.0,0.0,53,0.00,,---,0.00,VWS V13.00,2013-11-29 08:03:00,
2013-11-29 01:08:00,21.9,7.4,30.17,West,266,0.0,0.0,53,0.00,,---,0.00,VWS V13.00,2013-11-29 08:08:00,
2013-11-29 01:13:00,22.1,7.6,30.17,West,266,0.0,0.0,53,0.00,,---,0.00,VWS V13.00,2013-11-29 08:13:00,
2013-11-29 01:18:00,21.9,7.4,30.17,West,266,0.0,0.0,53,0.00,,---,0.00,VWS V13.00,2013-11-29 08:18:00,
2013-11-29 01:23:00,21.6,7.5,30.17,West,266,0.0,0.0,54,0.00,,---,0.00,VWS V13.00,2013-11-29 08:23:00,
2013-11-29 01:28:00,21.4,7.3,30.17,West,266,0.0,0.0,54,0.00,,---,0.00,VWS V13.00,2013-11-29 08:28:00,
2013-11-29 01:33:00,21.4,7.3,30.17,West,266,0.0,0.0,54,0.00,,---,0.00,VWS V13.00,2013-11-29 08:33:00,
2013-11-29 01:38:00,21.2,7.2,30.17,West,266,0.0,0.0,54,0.00,,---,0.00,VWS V13.00,2013-11-29 08:38:00,
2013-11-29 01:43:00,21.0,7.0,30.17,West,266,0.0,0.0,54,0.00,,---,0.00,VWS V13.00,2013-11-29 08:43:00,
2013-11-29 01:48:00,21.0,7.4,30.17,West,266,0.0,0.0,55,0.00,,---,0.00,VWS V13.00,2013-11-29 08:48:00,
2013-11-29 01:54:00,21.0,7.4,30.17,West,266,0.0,0.0,55,0.00,,---,0.00,VWS V13.00,2013-11-29 08:54:00,
2013-11-29 01:59:00,20.8,7.2,30.17,West,266,0.0,0.0,55,0.00,,---,0.00,VWS V13.00,2013-11-29 08:59:00,
2013-11-29 02:04:00,20.8,7.2,30.17,West,266,0.0,0.0,55,0.00,,---,0.00,VWS V13.00,2013-11-29 09:04:00,
2013-11-29 02:09:00,20.7,7.1,30.17,West,266,0.0,0.0,55,0.00,,---,0.00,VWS V13.00,2013-11-29 09:09:00,
2013-11-29 02:14:00,20.7,7.5,30.17,West,266,0.0,0.0,56,0.00,,---,0.00,VWS V13.00,2013-11-29 09:14:00,
2013-11-29 02:19:00,20.7,7.5,30.17,West,266,0.0,0.0,56,0.00,,---,0.00,VWS V13.00,2013-11-29 09:19:00,
2013-11-29 02:24:00,20.5,7.3,30.17,West,266,0.0,0.0,56,0.00,,---,0.00,VWS V13.00,2013-11-29 09:24:00,
2013-11-29 02:29:00,20.5,7.3,30.17,West,266,0.0,0.0,56,0.00,,---,0.00,VWS V13.00,2013-11-29 09:29:00,
2013-11-29 02:34:00,20.3,7.1,30.17,West,266,0.0,0.0,56,0.00,,---,0.00,VWS V13.00,2013-11-29 09:34:00,
2013-11-29 02:39:00,20.3,7.1,30.17,West,266,0.0,0.0,56,0.00,,---,0.00,VWS V13.00,2013-11-29 09:39:00,
2013-11-29 02:44:00,20.1,7.3,30.17,West,266,0.0,0.0,57,0.00,,---,0.00,VWS V13.00,2013-11-29 09:44:00,
2013-11-29 02:49:00,19.9,7.2,30.17,West,266,0.0,0.0,57,0.00,,---,0.00,VWS V13.00,2013-11-29 09:49:00,
2013-11-29 02:54:00,19.9,7.2,30.17,West,266,0.0,0.0,57,0.00,,---,0.00,VWS V13.00,2013-11-29 09:54:00,
2013-11-29 02:59:00,19.6,6.8,30.17,West,266,0.0,0.0,57,0.00,,---,0.00,VWS V13.00,2013-11-29 09:59:00,
2013-11-29 03:04:00,19.6,6.8,30.17,West,266,0.0,0.0,57,0.00,,---,0.00,VWS V13.00,2013-11-29 10:04:00,
2013-11-29 03:09:00,19.6,6.8,30.17,West,266,0.0,0.0,57,0.00,,---,0.00,VWS V13.00,2013-11-29 10:09:00,
2013-11-29 03:14:00,19.4,6.7,30.17,West,266,0.0,0.0,57,0.00,,---,0.00,VWS V13.00,2013-11-29 10:14:00,
2013-11-29 03:19:00,19.4,6.7,30.17,West,266,0.0,0.0,57,0.00,,---,0.00,VWS V13.00,2013-11-29 10:19:00,
2013-11-29 03:25:00,19.4,7.1,30.17,West,266,0.0,0.0,58,0.00,,---,0.00,VWS V13.00,2013-11-29 10:25:00,
2013-11-29 03:30:00,19.6,6.8,30.17,West,266,0.0,0.0,57,0.00,,---,0.00,VWS V13.00,2013-11-29 10:30:00,
2013-11-29 03:35:00,19.4,7.1,30.17,West,266,0.0,0.0,58,0.00,,---,0.00,VWS V13.00,2013-11-29 10:35:00,
2013-11-29 03:40:00,19.4,7.1,30.17,West,266,0.0,0.0,58,0.00,,---,0.00,VWS V13.00,2013-11-29 10:40:00,
2013-11-29 03:45:00,19.0,6.7,30.17,West,266,0.0,0.0,58,0.00,,---,0.00,VWS V13.00,2013-11-29 10:45:00,
2013-11-29 03:50:00,18.9,6.5,30.17,West,266,0.0,0.0,58,0.00,,---,0.00,VWS V13.00,2013-11-29 10:50:00,
2013-11-29 03:55:00,18.7,6.4,30.17,West,266,0.0,0.0,58,0.00,,---,0.00,VWS V13.00,2013-11-29 10:55:00,
2013-11-29 04:00:00,18.5,6.2,30.17,West,266,0.0,0.0,58,0.00,,---,0.00,VWS V13.00,2013-11-29 11:00:00,
2013-11-29 04:05:00,18.5,6.2,30.17,West,266,0.0,0.0,58,0.00,,---,0.00,VWS V13.00,2013-11-29 11:05:00,
2013-11-29 04:10:00,18.3,6.0,30.20,West,266,0.0,0.0,58,0.00,,---,0.00,VWS V13.00,2013-11-29 11:10:00,
2013-11-29 04:15:00,18.3,6.4,30.20,West,266,0.0,0.0,59,0.00,,---,0.00,VWS V13.00,2013-11-29 11:15:00,
2013-11-29 04:20:00,18.1,6.2,30.20,West,266,0.0,0.0,59,0.00,,---,0.00,VWS V13.00,2013-11-29 11:20:00,
2013-11-29 04:25:00,18.3,6.4,30.20,West,266,0.0,0.0,59,0.00,,---,0.00,VWS V13.00,2013-11-29 11:25:00,
2013-11-29 04:30:00,18.3,6.4,30.20,West,266,0.0,0.0,59,0.00,,---,0.00,VWS V13.00,2013-11-29 11:30:00,
2013-11-29 04:35:00,18.3,6.4,30.20,West,266,0.0,0.0,59,0.00,,---,0.00,VWS V13.00,2013-11-29 11:35:00,
2013-11-29 04:41:00,18.1,6.2,30.20,West,266,0.0,0.0,59,0.00,,---,0.00,VWS V13.00,2013-11-29 11:41:00,
2013-11-29 04:46:00,18.1,6.2,30.20,West,266,0.0,0.0,59,0.00,,---,0.00,VWS V13.00,2013-11-29 11:46:00,
2013-11-29 04:51:00,18.1,6.6,30.20,West,266,0.0,0.0,60,0.00,,---,0.00,VWS V13.00,2013-11-29 11:51:00,
2013-11-29 04:56:00,18.0,6.1,30.20,West,266,0.0,0.0,59,0.00,,---,0.00,VWS V13.00,2013-11-29 11:56:00,
2013-11-29 05:01:00,17.8,5.9,30.20,West,266,0.0,0.0,59,0.00,,---,0.00,VWS V13.00,2013-11-29 12:01:00,
2013-11-29 05:06:00,17.6,6.1,30.20,West,266,0.0,0.0,60,0.00,,---,0.00,VWS V13.00,2013-11-29 12:06:00,
2013-11-29 05:11:00,17.4,5.9,30.20,West,266,0.0,0.0,60,0.00,,---,0.00,VWS V13.00,2013-11-29 12:11:00,
2013-11-29 05:16:00,17.2,5.8,30.20,West,266,0.0,0.0,60,0.00,,---,0.00,VWS V13.00,2013-11-29 12:16:00,
2013-11-29 05:21:00,17.2,5.8,30.20,West,266,0.0,0.0,60,0.00,,---,0.00,VWS V13.00,2013-11-29 12:21:00,
2013-11-29 05:26:00,17.2,5.8,30.20,West,266,0.0,0.0,60,0.00,,---,0.00,VWS V13.00,2013-11-29 12:26:00,
2013-11-29 05:31:00,17.2,5.8,30.20,West,266,0.0,0.0,60,0.00,,---,0.00,VWS V13.00,2013-11-29 12:31:00,
2013-11-29 05:36:00,17.1,5.6,30.20,West,266,0.0,0.0,60,0.00,,---,0.00,VWS V13.00,2013-11-29 12:36:00,
2013-11-29 05:41:00,16.9,5.4,30.20,West,266,0.0,0.0,60,0.00,,---,0.00,VWS V13.00,2013-11-29 12:41:00,
2013-11-29 05:46:00,17.1,5.6,30.20,West,266,0.0,0.0,60,0.00,,---,0.00,VWS V13.00,2013-11-29 12:46:00,
2013-11-29 05:51:00,16.9,5.4,30.20,West,266,0.0,0.0,60,0.00,,---,0.00,VWS V13.00,2013-11-29 12:51:00,
2013-11-29 05:57:00,16.7,5.2,30.20,West,266,0.0,0.0,60,0.00,,---,0.00,VWS V13.00,2013-11-29 12:57:00,
2013-11-29 06:02:00,16.7,5.2,30.20,West,266,0.0,0.0,60,0.00,,---,0.00,VWS V13.00,2013-11-29 13:02:00,
2013-11-29 06:07:00,16.7,5.2,30.20,West,266,0.0,0.0,60,0.00,,---,0.00,VWS V13.00,2013-11-29 13:07:00,
2013-11-29 06:12:00,16.7,5.2,30.20,West,266,0.0,0.0,60,0.00,,---,0.00,VWS V13.00,2013-11-29 13:12:00,
2013-11-29 06:17:00,16.7,5.2,30.20,West,266,0.0,0.0,60,0.00,,---,0.00,VWS V13.00,2013-11-29 13:17:00,
2013-11-29 06:22:00,16.7,5.2,30.20,West,266,0.0,0.0,60,0.00,,---,0.00,VWS V13.00,2013-11-29 13:22:00,
2013-11-29 06:27:00,16.5,5.1,30.23,West,266,0.0,0.0,60,0.00,,---,0.00,VWS V13.00,2013-11-29 13:27:00,
2013-11-29 06:32:00,16.5,5.1,30.23,West,266,0.0,0.0,60,0.00,,---,0.00,VWS V13.00,2013-11-29 13:32:00,
2013-11-29 06:37:00,16.7,5.2,30.23,West,266,0.0,0.0,60,0.00,,---,0.00,VWS V13.00,2013-11-29 13:37:00,
2013-11-29 06:42:00,16.5,4.7,30.23,West,266,0.0,0.0,59,0.00,,---,0.00,VWS V13.00,2013-11-29 13:42:00,
2013-11-29 06:47:00,16.3,4.5,30.23,West,266,0.0,0.0,59,0.00,,---,0.00,VWS V13.00,2013-11-29 13:47:00,
2013-11-29 06:52:00,16.2,4.4,30.23,West,266,0.0,0.0,59,0.00,,---,0.00,VWS V13.00,2013-11-29 13:52:00,
2013-11-29 06:57:00,16.2,4.4,30.23,West,266,0.0,0.0,59,0.00,,---,0.00,VWS V13.00,2013-11-29 13:57:00,
2013-11-29 07:02:00,16.2,4.4,30.23,West,266,0.0,0.0,59,0.00,,---,0.00,VWS V13.00,2013-11-29 14:02:00,
2013-11-29 07:07:00,16.2,4.4,30.23,West,266,0.0,0.0,59,0.00,,---,0.00,VWS V13.00,2013-11-29 14:07:00,
2013-11-29 07:12:00,16.2,4.4,30.23,West,266,0.0,0.0,59,0.00,,---,0.00,VWS V13.00,2013-11-29 14:12:00,
2013-11-29 07:17:00,16.0,4.2,30.23,West,266,0.0,0.0,59,0.00,,---,0.00,VWS V13.00,2013-11-29 14:17:00,
2013-11-29 07:23:00,16.2,4.4,30.23,West,266,0.0,0.0,59,0.00,,---,0.00,VWS V13.00,2013-11-29 14:23:00,
2013-11-29 07:28:00,16.2,4.4,30.23,West,266,0.0,0.0,59,0.00,,---,0.00,VWS V13.00,2013-11-29 14:28:00,
2013-11-29 07:33:00,16.3,4.5,30.23,West,266,0.0,0.0,59,0.00,,---,0.00,VWS V13.00,2013-11-29 14:33:00,
2013-11-29 07:38:00,16.2,4.0,30.23,West,266,0.0,0.0,58,0.00,,---,0.00,VWS V13.00,2013-11-29 14:38:00,
2013-11-29 07:43:00,16.5,4.3,30.23,West,266,0.0,0.0,58,0.00,,---,0.00,VWS V13.00,2013-11-29 14:43:00,
2013-11-29 07:48:00,16.9,4.7,30.23,West,266,0.0,0.0,58,0.00,,---,0.00,VWS V13.00,2013-11-29 14:48:00,
2013-11-29 07:53:00,17.4,5.6,30.23,West,266,0.0,0.0,59,0.00,,---,0.00,VWS V13.00,2013-11-29 14:53:00,
2013-11-29 07:58:00,18.0,5.7,30.23,West,266,0.0,0.0,58,0.00,,---,0.00,VWS V13.00,2013-11-29 14:58:00,
2013-11-29 08:03:00,18.5,6.2,30.23,West,266,0.0,0.0,58,0.00,,---,0.00,VWS V13.00,2013-11-29 15:03:00,
2013-11-29 08:08:00,19.2,6.9,30.23,West,266,0.0,0.0,58,0.00,,---,0.00,VWS V13.00,2013-11-29 15:08:00,
2013-11-29 08:13:00,19.6,7.2,30.23,West,266,0.0,0.0,58,0.00,,---,0.00,VWS V13.00,2013-11-29 15:13:00,
2013-11-29 08:18:00,19.9,7.6,30.23,West,266,0.0,0.0,58,0.00,,---,0.00,VWS V13.00,2013-11-29 15:18:00,
2013-11-29 08:23:00,20.3,7.9,30.23,West,266,0.0,0.0,58,0.00,,---,0.00,VWS V13.00,2013-11-29 15:23:00,
2013-11-29 08:28:00,20.7,8.6,30.26,West,266,0.0,0.0,59,0.00,,---,0.00,VWS V13.00,2013-11-29 15:28:00,
2013-11-29 08:33:00,21.0,8.9,30.26,West,266,0.0,0.0,59,0.00,,---,0.00,VWS V13.00,2013-11-29 15:33:00,
2013-11-29 08:38:00,21.6,9.5,30.26,West,266,0.0,0.0,59,0.00,,---,0.00,VWS V13.00,2013-11-29 15:38:00,
2013-11-29 08:43:00,22.3,10.1,30.26,West,266,0.0,0.0,59,0.00,,---,0.00,VWS V13.00,2013-11-29 15:43:00,
2013-11-29 08:48:00,23.0,11.2,30.26,West,266,0.0,0.0,60,0.00,,---,0.00,VWS V13.00,2013-11-29 15:48:00,
2013-11-29 08:53:00,23.5,11.3,30.26,West,266,0.0,0.0,59,0.00,,---,0.00,VWS V13.00,2013-11-29 15:53:00,
2013-11-29 08:59:00,24.1,11.8,30.26,West,266,0.0,0.0,59,0.00,,---,0.00,VWS V13.00,2013-11-29 15:59:00,
2013-11-29 09:04:00,25.0,12.7,30.26,WSW,254,0.0,0.0,59,0.00,,---,0.00,VWS V13.00,2013-11-29 16:04:00,
2013-11-29 09:09:00,25.7,13.8,30.26,WSW,254,0.0,0.0,60,0.00,,---,0.00,VWS V13.00,2013-11-29 16:09:00,
2013-11-29 09:14:00,26.2,14.3,30.26,WSW,249,0.0,0.0,60,0.00,,---,0.00,VWS V13.00,2013-11-29 16:14:00,
2013-11-29 09:19:00,27.0,14.9,30.26,WSW,249,0.0,0.0,60,0.00,,---,0.00,VWS V13.00,2013-11-29 16:19:00,
2013-11-29 09:24:00,27.1,12.7,30.26,WSW,249,0.0,0.0,54,0.00,,---,0.00,VWS V13.00,2013-11-29 16:24:00,
2013-11-29 09:29:00,27.7,12.8,30.26,WSW,249,0.0,0.0,53,0.00,,---,0.00,VWS V13.00,2013-11-29 16:29:00,
2013-11-29 09:34:00,28.0,9.4,30.26,WSW,249,0.0,0.0,45,0.00,,---,0.00,VWS V13.00,2013-11-29 16:34:00,
2013-11-29 09:39:00,28.6,7.9,30.26,WSW,250,0.0,2.7,41,0.00,,---,0.00,VWS V13.00,2013-11-29 16:39:00,
2013-11-29 09:44:00,28.8,7.5,30.26,SW,234,0.0,0.0,40,0.00,,---,0.00,VWS V13.00,2013-11-29 16:44:00,
2013-11-29 09:49:00,28.9,8.2,30.26,SW,231,0.0,0.0,41,0.00,,---,0.00,VWS V13.00,2013-11-29 16:49:00,
2013-11-29 09:54:00,29.1,6.7,30.26,WSW,238,0.0,0.0,38,0.00,,---,0.00,VWS V13.00,2013-11-29 16:54:00,
2013-11-29 09:59:00,29.7,7.2,30.26,SSW,213,0.0,0.0,38,0.00,,---,0.00,VWS V13.00,2013-11-29 16:59:00,
2013-11-29 10:04:00,30.4,7.2,30.26,SSW,209,0.0,0.0,37,0.00,,---,0.00,VWS V13.00,2013-11-29 17:04:00,
2013-11-29 10:09:00,31.1,8.5,30.26,West,260,0.0,0.0,38,0.00,,---,0.00,VWS V13.00,2013-11-29 17:09:00,
2013-11-29 10:14:00,31.8,9.1,30.26,West,260,0.0,0.0,38,0.00,,---,0.00,VWS V13.00,2013-11-29 17:14:00,
2013-11-29 10:19:00,32.4,8.4,30.26,West,263,2.7,3.1,36,0.00,,---,0.00,VWS V13.00,2013-11-29 17:19:00,
2013-11-29 10:24:00,32.9,8.3,30.23,West,263,0.0,0.0,35,0.00,,---,0.00,VWS V13.00,2013-11-29 17:24:00,
2013-11-29 10:29:00,33.4,6.8,30.23,West,263,2.7,2.7,32,0.00,,---,0.00,VWS V13.00,2013-11-29 17:29:00,
2013-11-29 10:35:00,33.8,6.4,30.23,West,263,0.0,0.0,31,0.00,,---,0.00,VWS V13.00,2013-11-29 17:35:00,
2013-11-29 10:40:00,34.0,6.5,30.23,WSW,255,2.2,2.7,31,0.00,,---,0.00,VWS V13.00,2013-11-29 17:40:00,
2013-11-29 10:45:00,34.5,7.0,30.23,WSW,258,0.0,0.0,31,0.00,,---,0.00,VWS V13.00,2013-11-29 17:45:00,
2013-11-29 10:50:00,34.9,7.3,30.23,West,267,3.6,3.6,31,0.00,,---,0.00,VWS V13.00,2013-11-29 17:50:00,
2013-11-29 10:55:00,35.4,7.8,30.23,West,267,0.0,2.7,31,0.00,,---,0.00,VWS V13.00,2013-11-29 17:55:00,
2013-11-29 11:00:00,35.8,7.4,30.23,WSW,244,0.0,0.0,30,0.00,,---,0.00,VWS V13.00,2013-11-29 18:00:00,
2013-11-29 11:05:00,36.1,7.7,30.23,SW,226,0.0,0.0,30,0.00,,---,0.00,VWS V13.00,2013-11-29 18:05:00,
2013-11-29 11:10:00,36.7,8.2,30.23,WSW,258,3.6,3.6,30,0.00,,---,0.00,VWS V13.00,2013-11-29 18:10:00,
2013-11-29 11:15:00,37.0,8.5,30.23,WSW,257,2.7,3.1,30,0.00,,---,0.00,VWS V13.00,2013-11-29 18:15:00,
2013-11-29 11:20:00,37.4,8.1,30.23,West,264,3.6,3.6,29,0.00,,---,0.00,VWS V13.00,2013-11-29 18:20:00,
2013-11-29 11:25:00,37.6,8.2,30.20,West,263,0.0,2.7,29,0.00,,---,0.00,VWS V13.00,2013-11-29 18:25:00,
2013-11-29 11:30:00,38.1,8.7,30.20,SW,233,0.0,0.0,29,0.00,,---,0.00,VWS V13.00,2013-11-29 18:30:00,
2013-11-29 11:35:00,38.7,9.2,30.20,WSW,250,2.2,3.1,29,0.00,,---,0.00,VWS V13.00,2013-11-29 18:35:00,
2013-11-29 11:40:00,39.0,9.5,30.20,West,269,2.7,2.7,29,0.00,,---,0.00,VWS V13.00,2013-11-29 18:40:00,
2013-11-29 11:45:00,39.4,9.0,30.20,WSW,254,0.0,0.0,28,0.00,,---,0.00,VWS V13.00,2013-11-29 18:45:00,
2013-11-29 11:50:00,39.9,9.5,30.20,West,262,2.2,2.2,28,0.00,,---,0.00,VWS V13.00,2013-11-29 18:50:00,
2013-11-29 11:55:00,40.3,9.8,30.20,West,265,3.6,4.0,28,0.00,,---,0.00,VWS V13.00,2013-11-29 18:55:00,
2013-11-29 12:00:00,40.5,8.3,30.20,West,265,2.2,2.2,26,0.00,,---,0.00,VWS V13.00,2013-11-29 19:00:00,
2013-11-29 12:06:00,40.5,8.3,30.20,South,181,0.0,2.2,26,0.00,,---,0.00,VWS V13.00,2013-11-29 19:06:00,
2013-11-29 12:11:00,40.6,8.4,30.20,West,270,3.1,3.6,26,0.00,,---,0.00,VWS V13.00,2013-11-29 19:11:00,
2013-11-29 12:16:00,40.8,8.6,30.20,West,262,2.2,2.7,26,0.00,,---,0.00,VWS V13.00,2013-11-29 19:16:00,
2013-11-29 12:21:00,41.2,8.9,30.20,West,259,0.0,0.0,26,0.00,,---,0.00,VWS V13.00,2013-11-29 19:21:00,
2013-11-29 12:26:00,41.2,8.9,30.17,West,269,2.7,2.7,26,0.00,,---,0.00,VWS V13.00,2013-11-29 19:26:00,
2013-11-29 12:31:00,41.2,8.9,30.17,West,269,2.2,3.6,26,0.00,,---,0.00,VWS V13.00,2013-11-29 19:31:00,
2013-11-29 12:36:00,41.4,9.1,30.17,West,265,0.0,0.0,26,0.00,,---,0.00,VWS V13.00,2013-11-29 19:36:00,
2013-11-29 12:41:00,41.4,9.1,30.17,West,271,2.7,2.7,26,0.00,,---,0.00,VWS V13.00,2013-11-29 19:41:00,
2013-11-29 12:46:00,41.7,6.7,30.17,WSW,244,0.0,0.0,23,0.00,,---,0.00,VWS V13.00,2013-11-29 19:46:00,
2013-11-29 12:51:00,41.9,9.5,30.17,West,265,2.7,2.7,26,0.00,,---,0.00,VWS V13.00,2013-11-29 19:51:00,
2013-11-29 12:56:00,42.1,7.0,30.17,West,265,0.0,0.0,23,0.00,,---,0.00,VWS V13.00,2013-11-29 19:56:00,
2013-11-29 13:01:00,42.3,7.1,30.17,West,265,0.0,2.7,23,0.00,,---,0.00,VWS V13.00,2013-11-29 20:01:00,
2013-11-29 13:06:00,42.4,7.3,30.17,West,261,0.0,0.0,23,0.00,,---,0.00,VWS V13.00,2013-11-29 20:06:00,
2013-11-29 13:11:00,42.8,7.6,30.17,WSW,255,3.6,3.6,23,0.00,,---,0.00,VWS V13.00,2013-11-29 20:11:00,
2013-11-29 13:16:00,43.0,7.7,30.17,West,265,3.6,3.6,23,0.00,,---,0.00,VWS V13.00,2013-11-29 20:16:00,
2013-11-29 13:21:00,43.2,7.9,30.17,SW,223,0.0,0.0,23,0.00,,---,0.00,VWS V13.00,2013-11-29 20:21:00,
2013-11-29 13:26:00,43.2,7.9,30.17,West,261,2.7,3.6,23,0.00,,---,0.00,VWS V13.00,2013-11-29 20:26:00,
2013-11-29 13:32:00,43.3,8.0,30.17,West,271,3.1,4.5,23,0.00,,---,0.00,VWS V13.00,2013-11-29 20:32:00,
2013-11-29 13:37:00,43.5,8.2,30.17,WSW,251,0.0,2.2,23,0.00,,---,0.00,VWS V13.00,2013-11-29 20:37:00,
2013-11-29 13:42:00,43.5,8.2,30.17,West,269,0.0,3.1,23,0.00,,---,0.00,VWS V13.00,2013-11-29 20:42:00,
2013-11-29 13:47:00,43.5,8.2,30.17,WSW,258,4.0,4.0,23,0.00,,---,0.00,VWS V13.00,2013-11-29 20:47:00,
2013-11-29 13:52:00,43.7,8.3,30.17,West,265,4.0,4.0,23,0.00,,---,0.00,VWS V13.00,2013-11-29 20:52:00,
2013-11-29 13:57:00,43.7,8.3,30.17,West,266,2.7,3.6,23,0.00,,---,0.00,VWS V13.00,2013-11-29 20:57:00,
2013-11-29 14:02:00,43.7,8.3,30.17,West,269,3.1,4.0,23,0.00,,---,0.00,VWS V13.00,2013-11-29 21:02:00,
2013-11-29 14:07:00,43.5,8.2,30.17,WNW,288,4.0,4.9,23,0.00,,---,0.00,VWS V13.00,2013-11-29 21:07:00,
2013-11-29 14:12:00,43.5,8.2,30.14,West,272,3.1,3.6,23,0.00,,---,0.00,VWS V13.00,2013-11-29 21:12:00,
2013-11-29 14:17:00,43.3,8.0,30.14,WSW,257,3.1,4.0,23,0.00,,---,0.00,VWS V13.00,2013-11-29 21:17:00,
2013-11-29 14:22:00,43.0,7.7,30.14,WNW,287,4.0,5.8,23,0.00,,---,0.00,VWS V13.00,2013-11-29 21:22:00,
2013-11-29 14:27:00,43.2,7.9,30.14,West,267,3.1,5.4,23,0.00,,---,0.00,VWS V13.00,2013-11-29 21:27:00,
2013-11-29 14:32:00,43.2,7.9,30.14,West,268,2.7,4.9,23,0.00,,---,0.00,VWS V13.00,2013-11-29 21:32:00,
2013-11-29 14:37:00,43.0,7.7,30.14,West,275,4.9,5.4,23,0.00,,---,0.00,VWS V13.00,2013-11-29 21:37:00,
2013-11-29 14:42:00,43.0,7.7,30.14,West,265,5.8,5.8,23,0.00,,---,0.00,VWS V13.00,2013-11-29 21:42:00,
2013-11-29 14:47:00,42.8,7.6,30.14,West,265,3.1,4.0,23,0.00,,---,0.00,VWS V13.00,2013-11-29 21:47:00,
2013-11-29 14:52:00,42.4,10.0,30.14,West,264,4.0,4.0,26,0.00,,---,0.00,VWS V13.00,2013-11-29 21:52:00,
2013-11-29 14:58:00,42.4,10.0,30.14,West,263,3.1,4.0,26,0.00,,---,0.00,VWS V13.00,2013-11-29 21:58:00,
2013-11-29 15:03:00,42.3,9.8,30.14,West,263,2.2,4.0,26,0.00,,---,0.00,VWS V13.00,2013-11-29 22:03:00,
2013-11-29 15:08:00,42.1,9.7,30.14,West,273,3.1,4.0,26,0.00,,---,0.00,VWS V13.00,2013-11-29 22:08:00,
2013-11-29 15:13:00,41.9,9.5,30.14,West,267,3.1,4.0,26,0.00,,---,0.00,VWS V13.00,2013-11-29 22:13:00,
2013-11-29 15:18:00,41.7,9.4,30.14,West,261,3.1,5.4,26,0.00,,---,0.00,VWS V13.00,2013-11-29 22:18:00,
2013-11-29 15:23:00,41.5,9.2,30.14,West,261,2.7,4.0,26,0.00,,---,0.00,VWS V13.00,2013-11-29 22:23:00,
2013-11-29 15:28:00,41.2,8.9,30.14,West,261,3.6,3.6,26,0.00,,---,0.00,VWS V13.00,2013-11-29 22:28:00,
2013-11-29 15:33:00,40.8,8.6,30.14,WSW,258,3.1,3.6,26,0.00,,---,0.00,VWS V13.00,2013-11-29 22:33:00,
2013-11-29 15:38:00,40.5,8.3,30.14,West,278,3.1,3.1,26,0.00,,---,0.00,VWS V13.00,2013-11-29 22:38:00,
2013-11-29 15:43:00,40.3,8.1,30.17,WSW,256,3.6,5.4,26,0.00,,---,0.00,VWS V13.00,2013-11-29 22:43:00,
2013-11-29 15:48:00,39.9,7.8,30.17,WSW,251,4.0,4.0,26,0.00,,---,0.00,VWS V13.00,2013-11-29 22:48:00,
2013-11-29 15:53:00,39.4,7.4,30.17,West,268,3.6,3.6,26,0.00,,---,0.00,VWS V13.00,2013-11-29 22:53:00,
2013-11-29 15:58:00,39.0,7.1,30.17,West,262,3.1,4.0,26,0.00,,---,0.00,VWS V13.00,2013-11-29 22:58:00,
2013-11-29 16:03:00,38.7,9.2,30.17,West,262,3.1,4.0,29,0.00,,---,0.00,VWS V13.00,2013-11-29 23:03:00,
2013-11-29 16:08:00,38.1,8.7,30.17,West,260,2.2,3.1,29,0.00,,---,0.00,VWS V13.00,2013-11-29 23:08:00,
2013-11-29 16:13:00,37.6,8.2,30.17,West,264,2.2,3.1,29,0.00,,---,0.00,VWS V13.00,2013-11-29 23:13:00,
2013-11-29 16:18:00,36.7,7.4,30.17,West,278,0.0,0.0,29,0.00,,---,0.00,VWS V13.00,2013-11-29 23:18:00,
2013-11-29 16:24:00,36.1,7.7,30.17,West,266,2.2,2.7,30,0.00,,---,0.00,VWS V13.00,2013-11-29 23:24:00,
2013-11-29 16:29:00,35.6,7.2,30.17,West,265,0.0,3.1,30,0.00,,---,0.00,VWS V13.00,2013-11-29 23:29:00,
2013-11-29 16:34:00,35.1,6.8,30.17,West,263,0.0,3.1,30,0.00,,---,0.00,VWS V13.00,2013-11-29 23:34:00,
2013-11-29 16:39:00,34.5,7.0,30.17,West,263,0.0,0.0,31,0.00,,---,0.00,VWS V13.00,2013-11-29 23:39:00,
2013-11-29 16:44:00,34.0,6.5,30.17,West,263,0.0,2.2,31,0.00,,---,0.00,VWS V13.00,2013-11-29 23:44:00,
2013-11-29 16:49:00,33.4,6.1,30.17,West,264,0.0,0.0,31,0.00,,---,0.00,VWS V13.00,2013-11-29 23:49:00,
2013-11-29 16:54:00,33.1,6.4,30.17,West,266,2.2,2.2,32,0.00,,---,0.00,VWS V13.00,2013-11-29 23:54:00,
2013-11-29 16:59:00,32.7,6.1,30.17,West,266,3.6,3.6,32,0.00,,---,0.00,VWS V13.00,2013-11-29 23:59:00,
2013-11-29 17:04:00,32.4,6.5,30.17,West,271,2.2,2.2,33,0.00,,---,0.00,VWS V13.00,2013-11-30 00:04:00,
2013-11-29 17:09:00,32.2,7.0,30.17,West,277,3.1,3.6,34,0.00,,---,0.00,VWS V13.00,2013-11-30 00:09:00,
2013-11-29 17:14:00,31.8,6.7,30.17,WSW,257,2.2,2.7,34,0.00,,---,0.00,VWS V13.00,2013-11-30 00:14:00,
2013-11-29 17:19:00,31.6,7.1,30.17,West,267,3.6,3.6,35,0.00,,---,0.00,VWS V13.00,2013-11-30 00:19:00,
2013-11-29 17:24:00,31.1,6.7,30.17,West,262,2.7,2.7,35,0.00,,---,0.00,VWS V13.00,2013-11-30 00:24:00,
2013-11-29 17:29:00,30.6,6.8,30.17,West,265,0.0,3.1,36,0.00,,---,0.00,VWS V13.00,2013-11-30 00:29:00,
2013-11-29 17:34:00,30.2,7.7,30.17,West,266,2.7,2.7,38,0.00,,---,0.00,VWS V13.00,2013-11-30 00:34:00,
2013-11-29 17:39:00,30.0,8.6,30.20,West,266,2.2,3.1,40,0.00,,---,0.00,VWS V13.00,2013-11-30 00:39:00,
2013-11-29 17:44:00,29.5,8.1,30.20,West,267,3.1,3.1,40,0.00,,---,0.00,VWS V13.00,2013-11-30 00:44:00,
2013-11-29 17:50:00,29.3,8.5,30.20,West,265,0.0,0.0,41,0.00,,---,0.00,VWS V13.00,2013-11-30 00:50:00,
2013-11-29 17:55:00,29.1,8.4,30.20,West,263,3.1,3.1,41,0.00,,---,0.00,VWS V13.00,2013-11-30 00:55:00,
2013-11-29 18:00:00,28.8,8.0,30.20,West,265,3.6,4.0,41,0.00,,---,0.00,VWS V13.00,2013-11-30 01:00:00,
2013-11-29 18:05:00,28.6,8.4,30.20,West,269,2.7,4.0,42,0.00,,---,0.00,VWS V13.00,2013-11-30 01:05:00,
2013-11-29 18:10:00,28.6,8.4,30.20,West,263,3.1,3.1,42,0.00,,---,0.00,VWS V13.00,2013-11-30 01:10:00,
2013-11-29 18:15:00,28.4,9.3,30.20,WSW,258,2.7,4.0,44,0.00,,---,0.00,VWS V13.00,2013-11-30 01:15:00,
2013-11-29 18:20:00,28.0,8.9,30.20,West,269,2.7,2.7,44,0.00,,---,0.00,VWS V13.00,2013-11-30 01:20:00,
2013-11-29 18:25:00,27.9,8.8,30.20,West,269,2.7,4.0,44,0.00,,---,0.00,VWS V13.00,2013-11-30 01:25:00,
2013-11-29 18:30:00,27.5,9.0,30.20,West,260,4.0,4.0,45,0.00,,---,0.00,VWS V13.00,2013-11-30 01:30:00,
2013-11-29 18:35:00,27.3,8.8,30.20,West,262,3.1,3.1,45,0.00,,---,0.00,VWS V13.00,2013-11-30 01:35:00,
2013-11-29 18:40:00,27.0,8.9,30.20,West,264,3.1,3.1,46,0.00,,---,0.00,VWS V13.00,2013-11-30 01:40:00,
2013-11-29 18:45:00,27.0,9.9,30.20,West,265,3.6,3.6,48,0.00,,---,0.00,VWS V13.00,2013-11-30 01:45:00,
2013-11-29 18:50:00,26.8,10.2,30.20,West,265,3.1,3.1,49,0.00,,---,0.00,VWS V13.00,2013-11-30 01:50:00,
2013-11-29 18:55:00,26.4,10.3,30.20,WSW,251,0.0,2.7,50,0.00,,---,0.00,VWS V13.00,2013-11-30 01:55:00,
2013-11-29 19:00:00,26.2,10.1,30.20,West,264,2.7,2.7,50,0.00,,---,0.00,VWS V13.00,2013-11-30 02:00:00,
2013-11-29 19:05:00,26.1,10.4,30.20,West,265,0.0,2.2,51,0.00,,---,0.00,VWS V13.00,2013-11-30 02:05:00,
2013-11-29 19:11:00,25.9,10.3,30.20,West,262,3.1,3.1,51,0.00,,---,0.00,VWS V13.00,2013-11-30 02:11:00,
2013-11-29 19:16:00,25.7,10.1,30.20,WSW,253,2.2,2.2,51,0.00,,---,0.00,VWS V13.00,2013-11-30 02:16:00,
2013-11-29 19:21:00,25.5,10.4,30.20,West,269,3.1,3.1,52,0.00,,---,0.00,VWS V13.00,2013-11-30 02:21:00,
2013-11-29 19:26:00,25.7,10.5,30.23,West,271,2.2,2.2,52,0.00,,---,0.00,VWS V13.00,2013-11-30 02:26:00,
2013-11-29 19:31:00,25.5,10.8,30.23,West,267,0.0,2.2,53,0.00,,---,0.00,VWS V13.00,2013-11-30 02:31:00,
2013-11-29 19:36:00,25.3,10.6,30.23,West,272,0.0,0.0,53,0.00,,---,0.00,VWS V13.00,2013-11-30 02:36:00,
2013-11-29 19:41:00,25.2,10.4,30.23,West,266,0.0,0.0,53,0.00,,---,0.00,VWS V13.00,2013-11-30 02:41:00,
2013-11-29 19:46:00,25.2,10.4,30.23,West,266,2.2,2.7,53,0.00,,---,0.00,VWS V13.00,2013-11-30 02:46:00,
2013-11-29 19:51:00,25.0,10.7,30.23,West,266,0.0,0.0,54,0.00,,---,0.00,VWS V13.00,2013-11-30 02:51:00,
2013-11-29 19:56:00,24.8,10.5,30.23,West,267,2.2,2.7,54,0.00,,---,0.00,VWS V13.00,2013-11-30 02:56:00,
2013-11-29 20:01:00,24.8,10.9,30.23,West,280,0.0,4.0,55,0.00,,---,0.00,VWS V13.00,2013-11-30 03:01:00,
2013-11-29 20:06:00,24.6,10.8,30.23,West,277,0.0,0.0,55,0.00,,---,0.00,VWS V13.00,2013-11-30 03:06:00,
2013-11-29 20:11:00,24.6,10.8,30.20,West,275,0.0,0.0,55,0.00,,---,0.00,VWS V13.00,2013-11-30 03:11:00,
2013-11-29 20:16:00,24.6,10.8,30.20,West,271,0.0,2.7,55,0.00,,---,0.00,VWS V13.00,2013-11-30 03:16:00,
2013-11-29 20:21:00,24.4,11.0,30.20,West,271,0.0,0.0,56,0.00,,---,0.00,VWS V13.00,2013-11-30 03:21:00,
2013-11-29 20:26:00,24.4,11.0,30.23,West,277,0.0,0.0,56,0.00,,---,0.00,VWS V13.00,2013-11-30 03:26:00,
2013-11-29 20:32:00,24.4,11.0,30.23,West,275,0.0,0.0,56,0.00,,---,0.00,VWS V13.00,2013-11-30 03:32:00,
2013-11-29 20:37:00,24.3,10.8,30.23,West,275,0.0,0.0,56,0.00,,---,0.00,VWS V13.00,2013-11-30 03:37:00,
2013-11-29 20:42:00,24.3,10.8,30.23,West,275,0.0,0.0,56,0.00,,---,0.00,VWS V13.00,2013-11-30 03:42:00,
2013-11-29 20:47:00,24.3,11.2,30.23,West,275,0.0,0.0,57,0.00,,---,0.00,VWS V13.00,2013-11-30 03:47:00,
2013-11-29 20:52:00,24.4,11.4,30.23,West,274,0.0,0.0,57,0.00,,---,0.00,VWS V13.00,2013-11-30 03:52:00,
2013-11-29 20:57:00,24.8,12.1,30.23,West,271,0.0,0.0,58,0.00,,---,0.00,VWS V13.00,2013-11-30 03:57:00,
2013-11-29 21:02:00,25.0,12.3,30.23,West,270,0.0,0.0,58,0.00,,---,0.00,VWS V13.00,2013-11-30 04:02:00,
2013-11-29 21:07:00,25.2,12.5,30.23,West,271,0.0,0.0,58,0.00,,---,0.00,VWS V13.00,2013-11-30 04:07:00,
2013-11-29 21:12:00,25.3,12.6,30.23,West,261,2.2,2.7,58,0.00,,---,0.00,VWS V13.00,2013-11-30 04:12:00,
2013-11-29 21:17:00,25.5,13.2,30.23,West,262,0.0,2.7,59,0.00,,---,0.00,VWS V13.00,2013-11-30 04:17:00,
2013-11-29 21:22:00,25.7,13.4,30.23,West,261,0.0,0.0,59,0.00,,---,0.00,VWS V13.00,2013-11-30 04:22:00,
2013-11-29 21:27:00,25.9,13.5,30.23,West,272,0.0,0.0,59,0.00,,---,0.00,VWS V13.00,2013-11-30 04:27:00,
2013-11-29 21:32:00,26.1,13.7,30.23,West,273,0.0,0.0,59,0.00,,---,0.00,VWS V13.00,2013-11-30 04:32:00,
2013-11-29 21:37:00,26.2,14.3,30.23,West,272,0.0,2.7,60,0.00,,---,0.00,VWS V13.00,2013-11-30 04:37:00,
2013-11-29 21:42:00,26.4,14.4,30.23,West,268,0.0,0.0,60,0.00,,---,0.00,VWS V13.00,2013-11-30 04:42:00,
2013-11-29 21:48:00,26.4,14.4,30.23,West,265,0.0,0.0,60,0.00,,---,0.00,VWS V13.00,2013-11-30 04:48:00,
2013-11-29 21:53:00,26.6,14.6,30.23,West,265,0.0,0.0,60,0.00,,---,0.00,VWS V13.00,2013-11-30 04:53:00,
2013-11-29 21:58:00,26.4,14.4,30.23,West,264,0.0,0.0,60,0.00,,---,0.00,VWS V13.00,2013-11-30 04:58:00,
2013-11-29 22:01:00,26.2,14.3,30.23,West,264,0.0,0.0,60,0.00,,---,0.00,VWS V13.00,2013-11-30 05:01:00,
2013-11-29 22:02:00,26.2,14.3,30.23,West,264,0.0,0.0,60,0.00,,---,0.00,VWS V13.00,2013-11-30 05:02:00,
2013-11-29 22:04:00,26.2,14.3,30.23,West,265,0.0,0.0,60,0.00,,---,0.00,VWS V13.00,2013-11-30 05:04:00,
2013-11-29 22:06:00,26.2,14.3,30.23,West,265,0.0,0.0,60,0.00,,---,0.00,VWS V13.00,2013-11-30 05:06:00,
2013-11-29 22:11:00,26.2,14.3,30.23,West,265,0.0,0.0,60,0.00,,---,0.00,VWS V13.00,2013-11-30 05:11:00,
2013-11-29 22:16:00,26.2,14.3,30.23,West,265,0.0,0.0,60,0.00,,---,0.00,VWS V13.00,2013-11-30 05:16:00,
2013-11-29 22:21:00,26.2,14.3,30.23,West,265,0.0,0.0,60,0.00,,---,0.00,VWS V13.00,2013-11-30 05:21:00,
2013-11-29 22:26:00,26.4,14.4,30.26,West,265,0.0,0.0,60,0.00,,---,0.00,VWS V13.00,2013-11-30 05:26:00,
2013-11-29 22:31:00,26.4,14.4,30.26,West,265,0.0,0.0,60,0.00,,---,0.00,VWS V13.00,2013-11-30 05:31:00,
2013-11-29 22:36:00,26.6,14.6,30.26,West,265,0.0,0.0,60,0.00,,---,0.00,VWS V13.00,2013-11-30 05:36:00,
2013-11-29 22:41:00,26.8,14.8,30.26,West,265,0.0,0.0,60,0.00,,---,0.00,VWS V13.00,2013-11-30 05:41:00,
2013-11-29 22:46:00,26.8,14.8,30.26,West,265,0.0,0.0,60,0.00,,---,0.00,VWS V13.00,2013-11-30 05:46:00,
2013-11-29 22:51:00,27.0,14.9,30.26,West,263,0.0,0.0,60,0.00,,---,0.00,VWS V13.00,2013-11-30 05:51:00,
2013-11-29 22:56:00,27.0,14.9,30.26,West,265,0.0,0.0,60,0.00,,---,0.00,VWS V13.00,2013-11-30 05:56:00,
2013-11-29 23:02:00,27.0,14.6,30.26,West,265,0.0,0.0,59,0.00,,---,0.00,VWS V13.00,2013-11-30 06:02:00,
2013-11-29 23:07:00,27.0,14.6,30.26,West,266,0.0,0.0,59,0.00,,---,0.00,VWS V13.00,2013-11-30 06:07:00,
2013-11-29 23:12:00,27.0,14.6,30.26,SW,231,0.0,0.0,59,0.00,,---,0.00,VWS V13.00,2013-11-30 06:12:00,
2013-11-29 23:17:00,26.8,14.0,30.26,WNW,287,0.0,0.0,58,0.00,,---,0.00,VWS V13.00,2013-11-30 06:17:00,
2013-11-29 23:22:00,26.8,14.0,30.26,SSW,210,0.0,0.0,58,0.00,,---,0.00,VWS V13.00,2013-11-30 06:22:00,
2013-11-29 23:27:00,26.8,14.0,30.26,SSW,208,0.0,0.0,58,0.00,,---,0.00,VWS V13.00,2013-11-30 06:27:00,
2013-11-29 23:32:00,26.8,14.0,30.26,SW,230,0.0,0.0,58,0.00,,---,0.00,VWS V13.00,2013-11-30 06:32:00,
2013-11-29 23:37:00,26.8,14.0,30.26,SW,224,0.0,0.0,58,0.00,,---,0.00,VWS V13.00,2013-11-30 06:37:00,
2013-11-29 23:42:00,26.6,13.8,30.26,West,267,0.0,0.0,58,0.00,,---,0.00,VWS V13.00,2013-11-30 06:42:00,
2013-11-29 23:47:00,26.6,13.8,30.26,West,267,0.0,0.0,58,0.00,,---,0.00,VWS V13.00,2013-11-30 06:47:00,
2013-11-29 23:52:00,26.6,13.8,30.26,West,265,0.0,2.2,58,0.00,,---,0.00,VWS V13.00,2013-11-30 06:52:00,
2013-11-29 23:57:00,26.6,13.4,30.26,West,265,0.0,0.0,57,0.00,,---,0.00,VWS V13.00,2013-11-30 06:57:00,